sensor_id;sensor_type;location;lat;lon;timestamp;P1;durP1;ratioP1;P2;durP2;ratioP2
78365;SDS011;67641;59.864;30.464;2023-07-13T00:55:17;5.38;;;2.70;;
78365;SDS011;67641;59.864;30.464;2023-07-13T00:57:45;5.78;;;2.67;;
78365;SDS011;67641;59.864;30.464;2023-07-13T01:00:11;7.03;;;3.10;;
78365;SDS011;67641;59.864;30.464;2023-07-13T01:24:32;7.68;;;2.90;;
78365;SDS011;67641;59.864;30.464;2023-07-13T01:26:59;6.13;;;2.55;;
78365;SDS011;67641;59.864;30.464;2023-07-13T01:51:16;4.55;;;2.70;;
78365;SDS011;67641;59.864;30.464;2023-07-13T02:15:23;5.95;;;3.10;;
78365;SDS011;67641;59.864;30.464;2023-07-13T02:17:49;4.18;;;2.53;;
78365;SDS011;67641;59.864;30.464;2023-07-13T02:45:07;6.72;;;2.60;;
78365;SDS011;67641;59.864;30.464;2023-07-13T02:47:35;6.60;;;2.38;;
78365;SDS011;67641;59.864;30.464;2023-07-13T03:14:08;4.57;;;2.50;;
78365;SDS011;67641;59.864;30.464;2023-07-13T03:16:35;7.65;;;2.65;;
78365;SDS011;67641;59.864;30.464;2023-07-13T03:19:02;5.03;;;2.45;;
78365;SDS011;67641;59.864;30.464;2023-07-13T03:21:28;4.03;;;2.17;;
78365;SDS011;67641;59.864;30.464;2023-07-13T03:26:06;5.32;;;2.78;;
78365;SDS011;67641;59.864;30.464;2023-07-13T03:28:34;6.63;;;3.15;;
78365;SDS011;67641;59.864;30.464;2023-07-13T03:33:29;8.13;;;2.80;;
78365;SDS011;67641;59.864;30.464;2023-07-13T03:35:56;4.82;;;2.78;;
78365;SDS011;67641;59.864;30.464;2023-07-13T03:38:22;5.43;;;2.50;;
78365;SDS011;67641;59.864;30.464;2023-07-13T03:40:49;5.65;;;2.70;;
78365;SDS011;67641;59.864;30.464;2023-07-13T03:43:15;5.90;;;2.47;;
78365;SDS011;67641;59.864;30.464;2023-07-13T03:48:10;3.85;;;2.45;;
78365;SDS011;67641;59.864;30.464;2023-07-13T03:50:36;7.95;;;3.03;;
78365;SDS011;67641;59.864;30.464;2023-07-13T03:53:02;5.28;;;2.55;;
78365;SDS011;67641;59.864;30.464;2023-07-13T03:55:28;5.05;;;2.53;;
78365;SDS011;67641;59.864;30.464;2023-07-13T03:58:00;6.40;;;2.70;;
78365;SDS011;67641;59.864;30.464;2023-07-13T04:00:46;10.95;;;2.90;;
78365;SDS011;67641;59.864;30.464;2023-07-13T04:03:13;6.38;;;2.80;;
78365;SDS011;67641;59.864;30.464;2023-07-13T04:27:20;5.65;;;2.72;;
78365;SDS011;67641;59.864;30.464;2023-07-13T04:31:01;6.95;;;2.67;;
78365;SDS011;67641;59.864;30.464;2023-07-13T04:33:28;5.10;;;2.70;;
78365;SDS011;67641;59.864;30.464;2023-07-13T04:35:55;7.47;;;3.05;;
78365;SDS011;67641;59.864;30.464;2023-07-13T04:38:24;4.28;;;2.75;;
78365;SDS011;67641;59.864;30.464;2023-07-13T04:40:57;5.55;;;2.55;;
78365;SDS011;67641;59.864;30.464;2023-07-13T04:43:28;6.55;;;2.80;;
78365;SDS011;67641;59.864;30.464;2023-07-13T04:45:55;4.82;;;2.83;;
78365;SDS011;67641;59.864;30.464;2023-07-13T04:48:23;4.55;;;2.72;;
78365;SDS011;67641;59.864;30.464;2023-07-13T04:52:41;8.23;;;3.15;;
78365;SDS011;67641;59.864;30.464;2023-07-13T04:55:08;6.10;;;3.00;;
78365;SDS011;67641;59.864;30.464;2023-07-13T04:57:36;6.00;;;3.10;;
78365;SDS011;67641;59.864;30.464;2023-07-13T05:00:03;4.85;;;3.15;;
78365;SDS011;67641;59.864;30.464;2023-07-13T05:02:31;6.50;;;3.35;;
78365;SDS011;67641;59.864;30.464;2023-07-13T05:04:58;5.72;;;3.00;;
78365;SDS011;67641;59.864;30.464;2023-07-13T05:07:25;8.25;;;2.92;;
78365;SDS011;67641;59.864;30.464;2023-07-13T05:09:53;5.90;;;2.97;;
78365;SDS011;67641;59.864;30.464;2023-07-13T05:14:12;5.68;;;3.25;;
78365;SDS011;67641;59.864;30.464;2023-07-13T05:16:39;6.13;;;2.72;;
78365;SDS011;67641;59.864;30.464;2023-07-13T05:19:06;7.53;;;2.65;;
78365;SDS011;67641;59.864;30.464;2023-07-13T05:21:32;5.82;;;2.92;;
78365;SDS011;67641;59.864;30.464;2023-07-13T05:46:20;4.72;;;2.88;;
78365;SDS011;67641;59.864;30.464;2023-07-13T05:48:47;4.88;;;2.72;;
78365;SDS011;67641;59.864;30.464;2023-07-13T05:51:14;4.18;;;2.70;;
78365;SDS011;67641;59.864;30.464;2023-07-13T05:53:40;5.20;;;2.65;;
78365;SDS011;67641;59.864;30.464;2023-07-13T05:57:20;4.90;;;2.83;;
78365;SDS011;67641;59.864;30.464;2023-07-13T05:59:47;5.97;;;2.90;;
78365;SDS011;67641;59.864;30.464;2023-07-13T06:02:14;5.50;;;2.72;;
78365;SDS011;67641;59.864;30.464;2023-07-13T06:04:40;7.78;;;2.65;;
78365;SDS011;67641;59.864;30.464;2023-07-13T06:07:07;7.50;;;3.13;;
78365;SDS011;67641;59.864;30.464;2023-07-13T06:09:34;4.07;;;2.92;;
78365;SDS011;67641;59.864;30.464;2023-07-13T06:12:01;5.28;;;3.47;;
78365;SDS011;67641;59.864;30.464;2023-07-13T06:14:29;8.15;;;3.17;;
78365;SDS011;67641;59.864;30.464;2023-07-13T06:18:50;5.75;;;3.50;;
78365;SDS011;67641;59.864;30.464;2023-07-13T06:21:20;7.35;;;3.53;;
78365;SDS011;67641;59.864;30.464;2023-07-13T06:23:50;5.20;;;3.08;;
78365;SDS011;67641;59.864;30.464;2023-07-13T06:26:20;7.53;;;3.72;;
78365;SDS011;67641;59.864;30.464;2023-07-13T06:28:49;5.60;;;3.90;;
78365;SDS011;67641;59.864;30.464;2023-07-13T06:31:17;6.25;;;3.63;;
78365;SDS011;67641;59.864;30.464;2023-07-13T06:33:47;5.85;;;3.13;;
78365;SDS011;67641;59.864;30.464;2023-07-13T06:36:16;6.50;;;3.55;;
78365;SDS011;67641;59.864;30.464;2023-07-13T06:40:11;5.25;;;3.33;;
78365;SDS011;67641;59.864;30.464;2023-07-13T06:42:40;5.32;;;3.03;;
78365;SDS011;67641;59.864;30.464;2023-07-13T07:07:33;4.72;;;3.00;;
78365;SDS011;67641;59.864;30.464;2023-07-13T07:10:00;5.22;;;2.90;;
78365;SDS011;67641;59.864;30.464;2023-07-13T07:12:28;6.18;;;3.30;;
78365;SDS011;67641;59.864;30.464;2023-07-13T07:14:55;5.82;;;3.22;;
78365;SDS011;67641;59.864;30.464;2023-07-13T07:17:22;4.80;;;2.80;;
78365;SDS011;67641;59.864;30.464;2023-07-13T07:21:48;4.80;;;3.17;;
78365;SDS011;67641;59.864;30.464;2023-07-13T07:24:15;5.82;;;2.95;;
78365;SDS011;67641;59.864;30.464;2023-07-13T07:26:42;6.60;;;3.88;;
78365;SDS011;67641;59.864;30.464;2023-07-13T07:29:09;6.85;;;3.25;;
78365;SDS011;67641;59.864;30.464;2023-07-13T07:31:36;6.10;;;3.28;;
78365;SDS011;67641;59.864;30.464;2023-07-13T07:34:03;6.22;;;3.25;;
78365;SDS011;67641;59.864;30.464;2023-07-13T07:36:30;5.10;;;3.28;;
78365;SDS011;67641;59.864;30.464;2023-07-13T07:38:57;5.25;;;3.40;;
78365;SDS011;67641;59.864;30.464;2023-07-13T07:41:38;5.97;;;3.65;;
78365;SDS011;67641;59.864;30.464;2023-07-13T07:44:05;6.20;;;4.07;;
78365;SDS011;67641;59.864;30.464;2023-07-13T07:46:33;5.85;;;3.33;;
78365;SDS011;67641;59.864;30.464;2023-07-13T07:49:00;5.40;;;3.17;;
78365;SDS011;67641;59.864;30.464;2023-07-13T07:51:27;6.32;;;3.10;;
78365;SDS011;67641;59.864;30.464;2023-07-13T07:53:54;5.88;;;3.25;;
78365;SDS011;67641;59.864;30.464;2023-07-13T07:56:21;5.85;;;3.40;;
78365;SDS011;67641;59.864;30.464;2023-07-13T08:21:06;5.30;;;3.03;;
78365;SDS011;67641;59.864;30.464;2023-07-13T08:23:44;7.22;;;3.60;;
78365;SDS011;67641;59.864;30.464;2023-07-13T08:48:31;5.70;;;3.40;;
78365;SDS011;67641;59.864;30.464;2023-07-13T08:51:21;5.68;;;3.72;;
78365;SDS011;67641;59.864;30.464;2023-07-13T09:30:20;12.18;;;3.97;;
78365;SDS011;67641;59.864;30.464;2023-07-13T09:32:52;7.18;;;3.72;;
78365;SDS011;67641;59.864;30.464;2023-07-13T09:35:21;7.38;;;4.15;;
78365;SDS011;67641;59.864;30.464;2023-07-13T09:39:49;7.20;;;3.85;;
78365;SDS011;67641;59.864;30.464;2023-07-13T09:42:19;6.70;;;4.60;;
78365;SDS011;67641;59.864;30.464;2023-07-13T09:44:58;5.65;;;3.63;;
78365;SDS011;67641;59.864;30.464;2023-07-13T09:47:29;7.50;;;4.80;;
78365;SDS011;67641;59.864;30.464;2023-07-13T09:49:59;6.78;;;4.15;;
78365;SDS011;67641;59.864;30.464;2023-07-13T09:52:39;5.93;;;4.35;;
78365;SDS011;67641;59.864;30.464;2023-07-13T10:23:05;5.78;;;3.80;;
78365;SDS011;67641;59.864;30.464;2023-07-13T10:25:41;6.97;;;4.40;;
78365;SDS011;67641;59.864;30.464;2023-07-13T10:53:29;7.35;;;3.83;;
78365;SDS011;67641;59.864;30.464;2023-07-13T10:56:10;8.32;;;3.90;;
78365;SDS011;67641;59.864;30.464;2023-07-13T10:59:14;6.32;;;3.53;;
78365;SDS011;67641;59.864;30.464;2023-07-13T11:04:29;6.53;;;3.85;;
78365;SDS011;67641;59.864;30.464;2023-07-13T11:07:17;7.07;;;3.95;;
78365;SDS011;67641;59.864;30.464;2023-07-13T11:09:49;10.23;;;4.13;;
78365;SDS011;67641;59.864;30.464;2023-07-13T11:20:18;6.22;;;3.75;;
78365;SDS011;67641;59.864;30.464;2023-07-13T11:25:46;5.68;;;4.38;;
78365;SDS011;67641;59.864;30.464;2023-07-13T11:28:21;6.00;;;3.97;;
78365;SDS011;67641;59.864;30.464;2023-07-13T11:33:22;8.07;;;4.55;;
78365;SDS011;67641;59.864;30.464;2023-07-13T12:20:23;5.40;;;3.70;;
78365;SDS011;67641;59.864;30.464;2023-07-13T12:22:53;5.35;;;3.97;;
78365;SDS011;67641;59.864;30.464;2023-07-13T12:25:19;5.32;;;3.25;;
78365;SDS011;67641;59.864;30.464;2023-07-13T12:29:38;5.70;;;3.78;;
78365;SDS011;67641;59.864;30.464;2023-07-13T12:32:08;5.38;;;3.53;;
78365;SDS011;67641;59.864;30.464;2023-07-13T12:34:49;5.70;;;3.58;;
78365;SDS011;67641;59.864;30.464;2023-07-13T12:37:20;5.85;;;3.80;;
78365;SDS011;67641;59.864;30.464;2023-07-13T12:39:47;4.50;;;3.30;;
78365;SDS011;67641;59.864;30.464;2023-07-13T12:44:47;7.32;;;3.85;;
78365;SDS011;67641;59.864;30.464;2023-07-13T12:49:49;5.13;;;3.40;;
78365;SDS011;67641;59.864;30.464;2023-07-13T12:52:22;6.30;;;3.75;;
78365;SDS011;67641;59.864;30.464;2023-07-13T13:16:50;6.15;;;3.42;;
78365;SDS011;67641;59.864;30.464;2023-07-13T13:19:23;6.57;;;3.42;;
78365;SDS011;67641;59.864;30.464;2023-07-13T13:21:53;4.88;;;3.65;;
78365;SDS011;67641;59.864;30.464;2023-07-13T13:24:23;4.97;;;3.60;;
78365;SDS011;67641;59.864;30.464;2023-07-13T13:48:31;6.88;;;3.15;;
78365;SDS011;67641;59.864;30.464;2023-07-13T13:53:38;6.85;;;3.63;;
78365;SDS011;67641;59.864;30.464;2023-07-13T13:56:05;6.18;;;3.28;;
78365;SDS011;67641;59.864;30.464;2023-07-13T13:58:31;7.00;;;3.58;;
78365;SDS011;67641;59.864;30.464;2023-07-13T14:00:57;5.28;;;3.50;;
78365;SDS011;67641;59.864;30.464;2023-07-13T14:03:24;5.60;;;3.40;;
78365;SDS011;67641;59.864;30.464;2023-07-13T14:05:51;6.57;;;3.22;;
78365;SDS011;67641;59.864;30.464;2023-07-13T14:08:19;5.07;;;3.28;;
78365;SDS011;67641;59.864;30.464;2023-07-13T14:10:47;7.68;;;3.30;;
78365;SDS011;67641;59.864;30.464;2023-07-13T14:15:26;5.82;;;4.07;;
78365;SDS011;67641;59.864;30.464;2023-07-13T14:17:59;7.18;;;3.35;;
78365;SDS011;67641;59.864;30.464;2023-07-13T14:20:28;4.95;;;3.22;;
78365;SDS011;67641;59.864;30.464;2023-07-13T14:22:56;4.65;;;3.70;;
78365;SDS011;67641;59.864;30.464;2023-07-13T14:25:24;6.10;;;3.35;;
78365;SDS011;67641;59.864;30.464;2023-07-13T14:27:53;5.30;;;4.03;;
78365;SDS011;67641;59.864;30.464;2023-07-13T14:30:25;5.82;;;3.65;;
78365;SDS011;67641;59.864;30.464;2023-07-13T14:32:53;6.80;;;3.53;;
78365;SDS011;67641;59.864;30.464;2023-07-13T14:35:41;6.18;;;3.67;;
78365;SDS011;67641;59.864;30.464;2023-07-13T14:38:11;5.18;;;3.70;;
78365;SDS011;67641;59.864;30.464;2023-07-13T14:40:43;5.95;;;3.53;;
78365;SDS011;67641;59.864;30.464;2023-07-13T14:43:14;6.95;;;3.60;;
78365;SDS011;67641;59.864;30.464;2023-07-13T14:45:47;4.63;;;3.53;;
78365;SDS011;67641;59.864;30.464;2023-07-13T15:09:59;5.22;;;3.60;;
78365;SDS011;67641;59.864;30.464;2023-07-13T15:12:29;6.18;;;3.55;;
78365;SDS011;67641;59.864;30.464;2023-07-13T15:14:57;4.90;;;3.35;;
78365;SDS011;67641;59.864;30.464;2023-07-13T15:17:47;6.50;;;3.22;;
78365;SDS011;67641;59.864;30.464;2023-07-13T15:22:54;7.50;;;3.35;;
78365;SDS011;67641;59.864;30.464;2023-07-13T15:25:23;6.97;;;3.53;;
78365;SDS011;67641;59.864;30.464;2023-07-13T15:27:52;5.28;;;3.00;;
78365;SDS011;67641;59.864;30.464;2023-07-13T15:30:20;7.05;;;3.45;;
78365;SDS011;67641;59.864;30.464;2023-07-13T15:32:47;7.40;;;3.40;;
78365;SDS011;67641;59.864;30.464;2023-07-13T15:35:20;6.60;;;3.20;;
78365;SDS011;67641;59.864;30.464;2023-07-13T15:39:42;8.35;;;3.70;;
78365;SDS011;67641;59.864;30.464;2023-07-13T15:42:15;5.45;;;3.10;;
78365;SDS011;67641;59.864;30.464;2023-07-13T15:44:46;6.57;;;3.28;;
78365;SDS011;67641;59.864;30.464;2023-07-13T15:47:13;5.68;;;3.05;;
78365;SDS011;67641;59.864;30.464;2023-07-13T15:49:41;6.82;;;3.05;;
78365;SDS011;67641;59.864;30.464;2023-07-13T15:52:24;7.10;;;3.13;;
78365;SDS011;67641;59.864;30.464;2023-07-13T15:54:53;6.18;;;3.17;;
78365;SDS011;67641;59.864;30.464;2023-07-13T15:57:21;6.20;;;3.42;;
78365;SDS011;67641;59.864;30.464;2023-07-13T16:01:32;7.07;;;3.40;;
78365;SDS011;67641;59.864;30.464;2023-07-13T16:27:40;8.07;;;3.50;;
78365;SDS011;67641;59.864;30.464;2023-07-13T16:30:11;4.65;;;3.30;;
78365;SDS011;67641;59.864;30.464;2023-07-13T16:32:39;7.97;;;3.10;;
78365;SDS011;67641;59.864;30.464;2023-07-13T16:35:07;6.32;;;3.40;;
78365;SDS011;67641;59.864;30.464;2023-07-13T16:37:34;5.30;;;3.25;;
78365;SDS011;67641;59.864;30.464;2023-07-13T16:40:02;7.10;;;3.08;;
78365;SDS011;67641;59.864;30.464;2023-07-13T16:42:42;5.72;;;3.42;;
78365;SDS011;67641;59.864;30.464;2023-07-13T16:45:11;5.97;;;3.38;;
78365;SDS011;67641;59.864;30.464;2023-07-13T16:47:48;5.68;;;3.40;;
78365;SDS011;67641;59.864;30.464;2023-07-13T16:50:21;8.25;;;3.20;;
78365;SDS011;67641;59.864;30.464;2023-07-13T16:52:49;4.65;;;2.88;;
78365;SDS011;67641;59.864;30.464;2023-07-13T16:55:18;6.45;;;3.45;;
78365;SDS011;67641;59.864;30.464;2023-07-13T16:58:02;6.82;;;3.42;;
78365;SDS011;67641;59.864;30.464;2023-07-13T17:00:36;6.50;;;3.53;;
78365;SDS011;67641;59.864;30.464;2023-07-13T17:03:08;6.68;;;3.70;;
78365;SDS011;67641;59.864;30.464;2023-07-13T17:06:56;5.75;;;2.97;;
78365;SDS011;67641;59.864;30.464;2023-07-13T17:09:24;6.45;;;3.42;;
78365;SDS011;67641;59.864;30.464;2023-07-13T17:11:53;7.22;;;3.17;;
78365;SDS011;67641;59.864;30.464;2023-07-13T17:14:22;8.10;;;3.60;;
78365;SDS011;67641;59.864;30.464;2023-07-13T17:16:56;5.75;;;3.35;;
78365;SDS011;67641;59.864;30.464;2023-07-13T17:19:28;5.57;;;3.65;;
78365;SDS011;67641;59.864;30.464;2023-07-13T17:36:02;6.32;;;3.72;;
78365;SDS011;67641;59.864;30.464;2023-07-13T17:44:26;6.75;;;3.58;;
78365;SDS011;67641;59.864;30.464;2023-07-13T17:46:55;8.57;;;3.97;;
78365;SDS011;67641;59.864;30.464;2023-07-13T17:49:23;7.60;;;3.42;;
78365;SDS011;67641;59.864;30.464;2023-07-13T17:52:02;8.27;;;3.67;;
78365;SDS011;67641;59.864;30.464;2023-07-13T17:54:31;6.97;;;3.67;;
78365;SDS011;67641;59.864;30.464;2023-07-13T17:56:59;5.97;;;3.88;;
78365;SDS011;67641;59.864;30.464;2023-07-13T17:59:26;5.70;;;3.53;;
78365;SDS011;67641;59.864;30.464;2023-07-13T18:01:53;6.85;;;3.90;;
78365;SDS011;67641;59.864;30.464;2023-07-13T18:06:34;8.20;;;3.95;;
78365;SDS011;67641;59.864;30.464;2023-07-13T18:09:04;5.88;;;4.20;;
78365;SDS011;67641;59.864;30.464;2023-07-13T18:11:46;6.40;;;4.03;;
78365;SDS011;67641;59.864;30.464;2023-07-13T18:14:14;6.40;;;4.10;;
78365;SDS011;67641;59.864;30.464;2023-07-13T18:16:52;5.93;;;3.85;;
78365;SDS011;67641;59.864;30.464;2023-07-13T18:19:30;6.57;;;4.32;;
78365;SDS011;67641;59.864;30.464;2023-07-13T18:22:19;7.38;;;4.18;;
78365;SDS011;67641;59.864;30.464;2023-07-13T18:27:10;6.88;;;4.25;;
78365;SDS011;67641;59.864;30.464;2023-07-13T18:29:37;6.70;;;3.53;;
78365;SDS011;67641;59.864;30.464;2023-07-13T18:32:05;8.15;;;4.05;;
78365;SDS011;67641;59.864;30.464;2023-07-13T18:34:49;6.95;;;3.67;;
78365;SDS011;67641;59.864;30.464;2023-07-13T18:37:24;6.47;;;3.67;;
78365;SDS011;67641;59.864;30.464;2023-07-13T19:01:31;5.97;;;3.83;;
78365;SDS011;67641;59.864;30.464;2023-07-13T19:04:13;9.27;;;4.18;;
78365;SDS011;67641;59.864;30.464;2023-07-13T19:36:02;5.65;;;3.45;;
78365;SDS011;67641;59.864;30.464;2023-07-13T20:02:31;10.00;;;3.80;;
78365;SDS011;67641;59.864;30.464;2023-07-13T20:04:58;9.20;;;3.80;;
78365;SDS011;67641;59.864;30.464;2023-07-13T20:07:24;7.50;;;3.78;;
78365;SDS011;67641;59.864;30.464;2023-07-13T20:09:52;8.73;;;4.43;;
78365;SDS011;67641;59.864;30.464;2023-07-13T20:34:33;6.25;;;3.60;;
78365;SDS011;67641;59.864;30.464;2023-07-13T20:37:22;7.35;;;3.95;;
78365;SDS011;67641;59.864;30.464;2023-07-13T20:39:59;5.55;;;3.35;;
78365;SDS011;67641;59.864;30.464;2023-07-13T20:42:57;7.82;;;3.95;;
78365;SDS011;67641;59.864;30.464;2023-07-13T20:45:47;6.80;;;4.03;;
78365;SDS011;67641;59.864;30.464;2023-07-13T20:51:07;5.57;;;4.10;;
78365;SDS011;67641;59.864;30.464;2023-07-13T20:53:52;9.32;;;4.15;;
78365;SDS011;67641;59.864;30.464;2023-07-13T20:56:25;8.38;;;4.72;;
78365;SDS011;67641;59.864;30.464;2023-07-13T20:58:55;8.60;;;4.88;;
78365;SDS011;67641;59.864;30.464;2023-07-13T21:01:33;8.35;;;4.80;;
78365;SDS011;67641;59.864;30.464;2023-07-13T21:04:08;7.43;;;4.40;;
78365;SDS011;67641;59.864;30.464;2023-07-13T21:07:00;8.43;;;3.88;;
78365;SDS011;67641;59.864;30.464;2023-07-13T21:09:33;6.43;;;3.88;;
78365;SDS011;67641;59.864;30.464;2023-07-13T21:12:24;8.20;;;4.38;;
78365;SDS011;67641;59.864;30.464;2023-07-13T21:14:55;6.15;;;4.07;;
78365;SDS011;67641;59.864;30.464;2023-07-13T21:17:35;6.60;;;4.10;;
78365;SDS011;67641;59.864;30.464;2023-07-13T21:20:02;8.15;;;4.13;;
78365;SDS011;67641;59.864;30.464;2023-07-13T21:22:41;5.97;;;3.42;;
78365;SDS011;67641;59.864;30.464;2023-07-13T23:57:18;6.55;;;4.35;;
